createdAt,value
2023-04-22T00:03:57.502Z,5.53
2023-04-22T00:08:59.226Z,6.13
2023-04-22T00:14:00.712Z,4.82
2023-04-22T00:19:02.843Z,4.63
2023-04-22T00:24:04.804Z,4.97
2023-04-22T00:29:06.237Z,4.63
2023-04-22T00:34:08.423Z,5.60
2023-04-22T00:39:09.907Z,5.60
2023-04-22T00:44:12.085Z,5.78
2023-04-22T00:49:14.451Z,5.55
2023-04-22T00:54:15.918Z,5.40
2023-04-22T00:59:17.533Z,5.22
2023-04-22T01:04:20.240Z,4.97
2023-04-22T01:09:21.854Z,4.15
2023-04-22T01:14:24.358Z,4.15
2023-04-22T01:19:26.815Z,4.22
2023-04-22T01:24:28.452Z,4.35
2023-04-22T01:29:30.371Z,3.63
2023-04-22T01:34:32.348Z,3.17
2023-04-22T01:39:34.389Z,3.13
2023-04-22T01:44:36.016Z,3.95
2023-04-22T01:49:38.637Z,3.30
2023-04-22T01:54:41.215Z,3.42
2023-04-22T01:59:42.761Z,2.97
2023-04-22T02:04:44.426Z,2.90
2023-04-22T02:09:46.375Z,2.65
2023-04-22T02:14:49.191Z,3.10
2023-04-22T02:19:50.871Z,3.47
2023-04-22T02:24:52.324Z,2.95
2023-04-22T02:29:53.942Z,2.55
2023-04-22T02:34:55.671Z,2.53
2023-04-22T02:39:57.596Z,2.50
2023-04-22T02:44:59.004Z,2.35
2023-04-22T02:50:00.793Z,2.55
2023-04-22T02:55:02.377Z,2.38
2023-04-22T03:00:04.868Z,3.03
2023-04-22T03:05:06.935Z,2.30
2023-04-22T03:10:09.984Z,3.13
2023-04-22T03:15:12.081Z,3.03
2023-04-22T03:20:13.623Z,3.47
2023-04-22T03:25:15.243Z,3.42
2023-04-22T03:30:16.793Z,3.17
2023-04-22T03:35:18.245Z,2.72
2023-04-22T03:40:20.059Z,3.38
2023-04-22T03:45:21.786Z,3.58
2023-04-22T03:50:23.320Z,2.92
2023-04-22T03:55:24.776Z,3.50
2023-04-22T04:00:26.531Z,3.03
2023-04-22T04:05:28.211Z,3.10
2023-04-22T04:10:29.682Z,3.30
2023-04-22T04:15:32.439Z,3.63
2023-04-22T04:20:33.904Z,3.70
2023-04-22T04:25:38.728Z,3.47
2023-04-22T04:30:41.700Z,3.33
2023-04-22T04:35:44.782Z,3.78
2023-04-22T04:40:46.403Z,3.35
2023-04-22T04:45:48.909Z,2.75
2023-04-22T04:50:53.832Z,2.50
2023-04-22T04:55:55.311Z,2.65
2023-04-22T05:00:56.752Z,2.47
2023-04-22T05:05:58.381Z,2.50
2023-04-22T05:11:02.344Z,2.38
2023-04-22T05:16:04.133Z,2.05
2023-04-22T05:21:05.665Z,2.03
2023-04-22T05:26:07.176Z,2.13
2023-04-22T05:31:08.924Z,1.98
2023-04-22T05:36:10.893Z,1.70
2023-04-22T05:41:12.567Z,2.53
2023-04-22T05:46:13.992Z,2.63
2023-04-22T05:51:15.567Z,2.83
2023-04-22T05:56:17.783Z,2.30
2023-04-22T06:01:19.388Z,2.15
2023-04-22T06:06:20.944Z,2.90
2023-04-22T06:11:22.692Z,2.35
2023-04-22T06:16:24.399Z,2.45
2023-04-22T06:21:25.839Z,2.50
2023-04-22T06:26:27.535Z,2.67
2023-04-22T06:31:29.448Z,2.45
2023-04-22T06:36:32.007Z,2.55
2023-04-22T06:41:33.983Z,2.60
2023-04-22T06:46:35.784Z,2.60
2023-04-22T06:51:37.487Z,2.75
2023-04-22T06:56:39.097Z,2.70
2023-04-22T07:01:40.906Z,2.72
2023-04-22T07:06:43.187Z,3.00
2023-04-22T07:11:48.804Z,2.55
2023-04-22T07:16:50.935Z,2.20
2023-04-22T07:21:52.896Z,2.72
2023-04-22T07:26:54.462Z,3.08
2023-04-22T07:31:56.320Z,3.08
2023-04-22T07:36:57.960Z,2.83
2023-04-22T07:41:59.446Z,2.78
2023-04-22T07:47:00.963Z,2.95
2023-04-22T07:52:02.494Z,2.92
2023-04-22T07:57:03.967Z,3.45
2023-04-22T08:02:05.524Z,3.65
2023-04-22T08:07:29.765Z,3.08
2023-04-22T08:12:28.987Z,2.40
2023-04-22T08:17:30.571Z,2.67
2023-04-22T08:22:33.208Z,2.67
2023-04-22T08:27:34.702Z,2.33
2023-04-22T08:32:36.097Z,2.33
2023-04-22T08:37:37.651Z,2.25
2023-04-22T08:42:40.127Z,2.35
2023-04-22T08:47:42.762Z,2.38
2023-04-22T08:52:45.286Z,2.03
2023-04-22T08:57:47.847Z,2.17
2023-04-22T09:02:50.801Z,1.85
2023-04-22T09:07:52.652Z,1.90
2023-04-22T09:12:54.456Z,2.05
2023-04-22T09:17:56.974Z,2.28
2023-04-22T09:23:04.967Z,1.75
2023-04-22T09:28:11.209Z,1.65
2023-04-22T09:33:17.491Z,2.08
2023-04-22T09:38:20.650Z,1.95
2023-04-22T09:43:22.549Z,2.95
2023-04-22T09:48:24.898Z,1.83
2023-04-22T09:53:26.712Z,2.17
2023-04-22T09:58:28.168Z,1.52
2023-04-22T10:03:30.284Z,1.17
2023-04-22T10:08:33.324Z,1.52
2023-04-22T10:13:36.482Z,1.20
2023-04-22T10:23:47.093Z,1.30
2023-04-22T10:28:48.566Z,1.00
2023-04-22T10:33:50.126Z,1.17
2023-04-22T10:38:54.519Z,1.27
2023-04-22T10:44:01.476Z,1.20
2023-04-22T10:49:17.828Z,1.23
2023-04-22T10:54:38.247Z,0.98
2023-04-22T10:59:48.272Z,1.30
2023-04-22T11:04:55.204Z,0.80
2023-04-22T11:10:05.472Z,1.40
2023-04-22T11:15:12.725Z,1.17
2023-04-22T11:20:18.649Z,0.77
2023-04-22T11:25:21.843Z,0.77
2023-04-22T11:30:25.648Z,0.90
2023-04-22T11:35:28.900Z,0.80
2023-04-22T11:40:36.892Z,1.02
2023-04-22T11:45:40.129Z,0.73
2023-04-22T11:50:44.780Z,0.77
2023-04-22T11:55:51.155Z,1.15
2023-04-22T12:00:54.444Z,1.25
2023-04-22T12:05:58.373Z,1.08
2023-04-22T12:11:02.567Z,0.73
2023-04-22T12:16:06.098Z,1.35
2023-04-22T12:21:07.537Z,0.82
2023-04-22T12:26:09.499Z,1.10
2023-04-22T12:31:12.261Z,0.90
2023-04-22T12:36:14.333Z,1.13
2023-04-22T12:46:20.270Z,1.20
2023-04-22T12:51:22.702Z,1.20
2023-04-22T12:56:24.141Z,2.03
2023-04-22T13:01:25.977Z,1.30
2023-04-22T13:06:29.058Z,1.00
2023-04-22T13:11:30.469Z,1.20
2023-04-22T13:16:32.090Z,1.05
2023-04-22T13:21:33.535Z,1.13
2023-04-22T13:26:38.874Z,1.33
2023-04-22T13:31:44.754Z,1.27
2023-04-22T13:36:46.565Z,1.85
2023-04-22T13:41:48.000Z,1.38
2023-04-22T13:46:49.892Z,2.08
2023-04-22T13:51:51.361Z,1.50
2023-04-22T13:56:53.639Z,1.67
2023-04-22T14:01:55.459Z,1.52
2023-04-22T14:06:56.786Z,2.08
2023-04-22T14:11:58.780Z,1.75
2023-04-22T14:17:00.307Z,2.20
2023-04-22T14:22:02.144Z,1.67
2023-04-22T14:27:03.786Z,1.90
2023-04-22T14:32:05.452Z,1.90
2023-04-22T14:37:07.397Z,2.42
2023-04-22T14:42:08.874Z,2.17
2023-04-22T14:47:10.443Z,1.73
2023-04-22T14:52:12.126Z,1.63
2023-04-22T14:57:13.594Z,1.50
2023-04-22T15:02:16.233Z,1.25
2023-04-22T15:07:18.033Z,1.20
2023-04-22T15:12:19.842Z,1.50
2023-04-22T15:17:22.402Z,1.25
2023-04-22T15:22:25.130Z,1.48
2023-04-22T15:27:26.968Z,1.27
2023-04-22T15:32:28.848Z,1.70
2023-04-22T15:37:30.815Z,1.23
2023-04-22T15:42:32.458Z,1.52
2023-04-22T15:47:34.739Z,1.10
2023-04-22T15:52:37.585Z,1.65
2023-04-22T15:57:39.490Z,1.40
2023-04-22T16:02:42.637Z,1.10
2023-04-22T16:07:44.703Z,1.98
2023-04-22T16:12:46.947Z,1.60
2023-04-22T16:17:48.571Z,1.48
2023-04-22T16:22:50.377Z,1.45
2023-04-22T16:27:51.821Z,1.90
2023-04-22T16:32:53.579Z,1.13
2023-04-22T16:37:55.295Z,1.65
2023-04-22T16:43:00.519Z,1.65
2023-04-22T16:48:02.113Z,1.35
2023-04-22T16:53:03.830Z,1.98
2023-04-22T16:58:05.605Z,1.90
2023-04-22T17:03:07.614Z,1.65
2023-04-22T17:08:09.484Z,1.70
2023-04-22T17:13:13.333Z,1.70
2023-04-22T17:18:16.252Z,1.38
2023-04-22T17:23:17.950Z,2.08
2023-04-22T17:28:19.473Z,1.65
2023-04-22T17:33:21.265Z,2.35
2023-04-22T17:38:22.639Z,3.13
2023-04-22T17:43:24.225Z,2.70
2023-04-22T17:48:25.687Z,2.60
2023-04-22T17:53:27.705Z,3.08
2023-04-22T17:58:29.196Z,2.00
2023-04-22T18:03:32.150Z,2.00
2023-04-22T18:08:34.045Z,1.80
2023-04-22T18:13:35.665Z,1.40
2023-04-22T18:18:37.061Z,1.75
2023-04-22T18:23:39.759Z,1.60
2023-04-22T18:28:43.329Z,2.00
2023-04-22T18:33:45.067Z,1.90
2023-04-22T18:38:47.149Z,1.83
2023-04-22T18:43:48.612Z,1.60
2023-04-22T18:48:50.126Z,2.10
2023-04-22T18:53:51.865Z,2.05
2023-04-22T18:58:53.278Z,2.20
2023-04-22T19:03:54.749Z,1.88
2023-04-22T19:08:56.848Z,1.63
2023-04-22T19:13:58.384Z,1.65
2023-04-22T19:18:59.952Z,1.40
2023-04-22T19:24:01.801Z,1.42
2023-04-22T19:29:03.501Z,1.75
2023-04-22T19:34:04.934Z,1.65
2023-04-22T19:39:06.941Z,1.63
2023-04-22T19:44:08.424Z,1.70
2023-04-22T19:49:10.465Z,2.17
2023-04-22T19:54:16.101Z,1.35
2023-04-22T19:59:18.346Z,1.83
2023-04-22T20:04:20.668Z,1.13
2023-04-22T20:09:23.597Z,1.40
2023-04-22T20:14:26.509Z,1.88
2023-04-22T20:19:30.546Z,1.40
2023-04-22T20:29:38.767Z,1.50
2023-04-22T20:34:42.171Z,1.70
2023-04-22T20:39:44.401Z,1.42
2023-04-22T20:44:46.327Z,1.30
2023-04-22T20:49:47.840Z,1.65
2023-04-22T20:54:55.333Z,1.67
2023-04-22T20:59:56.780Z,1.88
2023-04-22T21:04:59.788Z,1.95
2023-04-22T21:10:01.369Z,1.90
2023-04-22T21:15:03.180Z,1.88
2023-04-22T21:20:05.634Z,2.10
2023-04-22T21:25:08.021Z,2.50
2023-04-22T21:30:10.413Z,2.55
2023-04-22T21:35:11.878Z,2.47
2023-04-22T21:40:13.917Z,2.90
2023-04-22T21:45:15.607Z,2.63
2023-04-22T21:50:18.099Z,2.65
2023-04-22T21:55:21.607Z,3.35
2023-04-22T22:00:24.918Z,3.22
2023-04-22T22:05:26.572Z,3.03
2023-04-22T22:10:28.400Z,3.03
2023-04-22T22:15:31.298Z,2.72
2023-04-22T22:20:33.228Z,2.78
2023-04-22T22:25:34.705Z,3.08
2023-04-22T22:30:36.318Z,2.92
2023-04-22T22:35:37.706Z,3.10
2023-04-22T22:40:39.040Z,3.00
2023-04-22T22:45:42.964Z,2.50
2023-04-22T22:50:47.516Z,2.78
2023-04-22T22:55:51.066Z,2.63
2023-04-22T23:00:52.483Z,2.77
2023-04-22T23:05:53.962Z,2.90
2023-04-22T23:10:55.468Z,2.63
2023-04-22T23:15:57.298Z,2.28
2023-04-22T23:21:01.163Z,3.42
2023-04-22T23:26:03.011Z,2.95
2023-04-22T23:31:06.791Z,3.03
2023-04-22T23:36:10.750Z,2.92
2023-04-22T23:41:12.155Z,2.75
2023-04-22T23:46:14.951Z,3.30
2023-04-22T23:51:17.636Z,3.63
2023-04-22T23:56:21.668Z,3.13
